Time;durP1;ratioP1;P1;durP2;ratioP2;P2;SDS_P1;SDS_P2;PMS_P1;PMS_P2;Temp;Humidity;BMP_temperature;BMP_pressure;BME280_temperature;BME280_humidity;BME280_pressure;Samples;Min_cycle;Max_cycle;Signal;HPM_P1;HPM_P2
2023/03/07 00:00:42;;;;;;;;;27.25;23.50;;;;;7.85;49.24;100107.13;5009155;28;46309;-65
2023/03/07 00:03:10;;;;;;;;;22.25;20.00;;;;;7.87;49.15;100102.75;5003610;28;45337;-66
2023/03/07 00:05:36;;;;;;;;;26.25;19.50;;;;;7.84;49.01;100102.81;5016853;28;45260;-65
2023/03/07 00:08:01;;;;;;;;;21.50;18.25;;;;;7.79;49.29;100095.84;5016659;28;45377;-65
2023/03/07 00:10:26;;;;;;;;;25.00;20.25;;;;;7.76;49.25;100098.53;5015611;28;46142;-65
2023/03/07 00:12:52;;;;;;;;;23.50;22.00;;;;;7.73;49.37;100088.09;5002162;28;45172;-65
2023/03/07 00:15:17;;;;;;;;;26.25;20.50;;;;;7.79;49.35;100105.47;5015232;28;45257;-65
2023/03/07 00:17:43;;;;;;;;;27.75;23.75;;;;;7.78;49.40;100091.50;5015358;28;45193;-65
2023/03/07 00:20:10;;;;;;;;;22.50;18.75;;;;;7.77;49.28;100102.88;5016690;28;45436;-65
2023/03/07 00:22:36;;;;;;;;;28.00;21.50;;;;;7.78;49.16;100103.72;5016709;28;45357;-66
2023/03/07 00:25:03;;;;;;;;;23.50;21.75;;;;;7.73;49.31;100089.84;5016682;28;45436;-65
2023/03/07 00:27:30;;;;;;;;;23.75;17.75;;;;;7.75;49.41;100090.72;5016509;28;45446;-65
2023/03/07 00:29:56;;;;;;;;;23.50;20.50;;;;;7.75;49.29;100090.72;5016366;28;45934;-65
2023/03/07 00:32:21;;;;;;;;;21.75;18.25;;;;;7.76;49.24;100087.19;5015216;28;45267;-65
2023/03/07 00:34:47;;;;;;;;;29.00;21.00;;;;;7.72;49.35;100083.75;5016925;28;45402;-65
2023/03/07 00:37:14;;;;;;;;;15.75;15.25;;;;;7.70;49.19;100074.19;5015619;28;45528;-65
2023/03/07 00:39:40;;;;;;;;;26.50;19.75;;;;;7.71;49.20;100079.41;5032160;28;45666;-65
2023/03/07 00:42:05;;;;;;;;;21.00;18.50;;;;;7.70;49.37;100072.44;5015532;28;45352;-65
2023/03/07 00:44:31;;;;;;;;;17.00;13.75;;;;;7.71;49.37;100073.28;5016267;28;45321;-65
2023/03/07 00:46:57;;;;;;;;;21.00;18.75;;;;;7.70;49.17;100074.19;5016068;28;45522;-65
2023/03/07 00:49:22;;;;;;;;;14.75;13.25;;;;;7.66;49.30;100073.38;5016233;28;45510;-65
2023/03/07 00:51:48;;;;;;;;;24.75;19.50;;;;;7.67;49.33;100069.84;5031482;28;45369;-65
2023/03/07 00:54:14;;;;;;;;;22.25;21.00;;;;;7.64;49.43;100064.69;5015059;28;45556;-64
2023/03/07 00:56:39;;;;;;;;;26.75;22.75;;;;;7.65;49.38;100071.63;5031440;28;45417;-65
2023/03/07 00:59:05;;;;;;;;;23.50;20.25;;;;;7.62;49.44;100061.19;5010268;28;45180;-65
2023/03/07 01:01:31;;;;;;;;;20.75;15.50;;;;;7.61;49.58;100057.72;5013220;28;45223;-65
2023/03/07 01:03:56;;;;;;;;;27.50;21.00;;;;;7.61;49.31;100060.34;5011511;28;45232;-65
2023/03/07 01:06:31;;;;;;;;;20.50;16.75;;;;;7.59;49.57;100051.66;5009216;28;45221;-65
2023/03/07 01:08:58;;;;;;;;;23.75;17.00;;;;;7.58;49.58;100055.16;4999991;28;47847;-65
2023/03/07 01:11:25;;;;;;;;;25.75;21.50;;;;;7.55;49.60;100043.88;4999414;28;45232;-66
2023/03/07 01:13:53;;;;;;;;;19.50;17.75;;;;;7.56;49.34;100045.59;5011718;28;45790;-65
2023/03/07 01:16:21;;;;;;;;;20.50;17.50;;;;;7.51;49.42;100039.56;5017954;28;46816;-65
2023/03/07 01:18:49;;;;;;;;;25.50;21.25;;;;;7.55;49.62;100033.44;5018588;28;46015;-65
2023/03/07 01:21:21;;;;;;;;;22.00;18.75;;;;;7.57;49.46;100042.09;5017857;28;45478;-65
2023/03/07 01:23:47;;;;;;;;;18.25;16.25;;;;;7.55;49.46;100031.66;5018435;28;45327;-66
2023/03/07 01:26:15;;;;;;;;;18.50;18.50;;;;;7.55;49.55;100022.97;5018850;28;45327;-65
2023/03/07 01:28:41;;;;;;;;;23.75;20.75;;;;;7.54;49.47;100023.84;5018422;28;45337;-65
2023/03/07 01:31:07;;;;;;;;;23.50;20.25;;;;;7.55;49.54;100028.19;5017642;28;45421;-65
2023/03/07 01:33:32;;;;;;;;;28.50;20.50;;;;;7.55;49.45;100028.19;5017703;28;45438;-66
2023/03/07 01:35:57;;;;;;;;;30.75;21.25;;;;;7.54;49.51;100016.00;5019009;28;45438;-65
2023/03/07 01:38:23;;;;;;;;;20.50;18.00;;;;;7.55;49.39;100018.59;5018649;28;45585;-65
2023/03/07 01:40:48;;;;;;;;;26.00;19.00;;;;;7.55;49.62;100012.50;5018348;28;53591;-65
2023/03/07 01:43:29;;;;;;;;;26.75;21.50;;;;;7.55;49.64;100002.91;5018729;28;45319;-65
2023/03/07 01:46:16;;;;;;;;;27.75;24.75;;;;;7.53;49.55;100002.03;5017723;28;45319;-65
2023/03/07 01:48:45;;;;;;;;;21.75;18.00;;;;;7.52;49.69;100000.34;5018312;28;45414;-65
2023/03/07 01:51:11;;;;;;;;;20.50;20.50;;;;;7.53;49.60;99995.97;5018766;28;45314;-65
2023/03/07 01:53:36;;;;;;;;;22.25;19.50;;;;;7.53;49.58;99990.72;5017625;28;45278;-65
2023/03/07 01:56:02;;;;;;;;;20.00;16.50;;;;;7.48;49.34;99975.97;5018628;28;45433;-66
2023/03/07 01:58:28;;;;;;;;;24.00;22.00;;;;;7.51;49.63;99989.88;5017751;28;45323;-65
2023/03/07 02:00:54;;;;;;;;;23.25;18.00;;;;;7.48;49.71;99978.59;5011132;28;45260;-65
2023/03/07 02:03:28;;;;;;;;;24.00;20.00;;;;;7.43;49.84;99961.22;5005721;28;45350;-65
2023/03/07 02:06:00;;;;;;;;;27.00;19.00;;;;;7.47;49.71;99969.03;5018534;28;45183;-65
2023/03/07 02:08:28;;;;;;;;;25.50;18.50;;;;;7.46;49.54;99964.66;5018562;28;46450;-65
2023/03/07 02:10:53;;;;;;;;;22.00;18.25;;;;;7.41;49.51;99958.66;5013140;28;45261;-65
2023/03/07 02:13:19;;;;;;;;;20.25;12.75;;;;;7.48;49.58;99964.66;5007327;28;45306;-65
2023/03/07 02:15:45;;;;;;;;;23.25;20.75;;;;;7.45;49.62;99955.09;5018533;28;45288;-65
2023/03/07 02:18:14;;;;;;;;;21.50;19.25;;;;;7.45;49.61;99949.88;5018383;28;45353;-65
2023/03/07 02:21:11;;;;;;;;;19.75;18.50;;;;;7.43;49.88;99941.19;5017065;28;45258;-65
2023/03/07 02:24:05;;;;;;;;;20.25;16.75;;;;;7.42;49.68;99942.09;5018306;28;45302;-65
2023/03/07 02:26:31;;;;;;;;;20.00;18.50;;;;;7.42;49.89;99942.09;5018683;28;45223;-65
2023/03/07 02:28:58;;;;;;;;;23.00;22.50;;;;;7.41;49.73;99934.22;5016629;28;47447;-65
2023/03/07 02:31:25;;;;;;;;;10.75;10.25;;;;;7.38;49.80;99935.16;5018356;28;45235;-65
2023/03/07 02:33:50;;;;;;;;;24.50;21.25;;;;;7.36;49.62;99925.59;5018115;28;45418;-65
2023/03/07 02:36:22;;;;;;;;;19.50;18.75;;;;;7.42;49.73;99930.75;5018322;28;45520;-65
2023/03/07 02:38:51;;;;;;;;;16.75;12.00;;;;;7.37;49.64;99925.59;5017999;28;46193;-65
2023/03/07 02:41:22;;;;;;;;;17.50;13.25;;;;;7.39;49.69;99923.81;5018133;28;45460;-65
2023/03/07 02:43:48;;;;;;;;;29.00;23.75;;;;;7.36;49.81;99922.97;5018243;28;45294;-65
2023/03/07 02:46:13;;;;;;;;;23.00;20.75;;;;;7.27;50.01;99897.84;5018194;28;45210;-65
2023/03/07 02:48:38;;;;;;;;;20.50;19.75;;;;;7.37;49.73;99920.38;5017670;28;46512;-65
2023/03/07 02:51:04;;;;;;;;;26.75;18.00;;;;;7.37;50.10;99922.97;5017608;28;56123;-65
2023/03/07 02:53:29;;;;;;;;;22.00;18.25;;;;;7.36;49.66;99913.41;5016915;28;45281;-65
2023/03/07 02:55:55;;;;;;;;;20.00;19.00;;;;;7.35;49.76;99906.44;5017909;28;45268;-65
2023/03/07 02:58:20;;;;;;;;;18.75;17.50;;;;;7.34;49.67;99912.56;5017827;28;45316;-65
2023/03/07 03:00:45;;;;;;;;;21.75;19.25;;;;;7.35;49.64;99921.28;5010070;28;45331;-65
2023/03/07 03:03:11;;;;;;;;;19.50;19.25;;;;;7.32;49.89;99911.72;5004337;28;45356;-65
2023/03/07 03:05:36;;;;;;;;;15.75;15.75;;;;;7.34;49.68;99914.31;5017431;28;54745;-65
2023/03/07 03:08:02;;;;;;;;;25.75;21.25;;;;;7.32;49.89;99911.72;5017672;28;46445;-65
2023/03/07 03:10:27;;;;;;;;;21.75;17.00;;;;;7.30;49.79;99903.03;5048591;28;45401;-65
2023/03/07 03:12:52;;;;;;;;;24.25;20.25;;;;;7.27;49.72;99893.50;5002968;28;45259;-65
2023/03/07 03:15:18;;;;;;;;;22.00;20.75;;;;;7.29;49.68;99893.47;5017777;28;45404;-65
2023/03/07 03:17:43;;;;;;;;;18.00;17.75;;;;;7.32;49.92;99896.06;5016181;28;48257;-65
2023/03/07 03:20:11;;;;;;;;;23.50;19.25;;;;;7.34;49.79;99893.41;5017607;28;45305;-65
2023/03/07 03:22:40;;;;;;;;;18.00;13.00;;;;;7.30;49.82;99887.34;5016486;28;45284;-65
2023/03/07 03:25:08;;;;;;;;;24.50;24.25;;;;;7.34;49.65;99889.03;5017680;28;45429;-65
2023/03/07 03:27:34;;;;;;;;;17.25;17.25;;;;;7.33;49.65;99889.91;5017401;28;45527;-65
2023/03/07 03:30:00;;;;;;;;;20.00;17.25;;;;;7.34;49.76;99894.25;5017322;28;45497;-65
2023/03/07 03:32:25;;;;;;;;;21.75;18.75;;;;;7.31;49.78;99883.88;5016248;28;45315;-65
2023/03/07 03:34:50;;;;;;;;;23.00;21.25;;;;;7.30;49.82;99876.91;5016203;28;45574;-65
2023/03/07 03:37:16;;;;;;;;;24.00;20.50;;;;;7.32;49.80;99890.81;5017273;28;46001;-65
2023/03/07 03:39:41;;;;;;;;;19.75;14.25;;;;;7.30;49.69;99887.34;5017335;28;45247;-65
2023/03/07 03:42:07;;;;;;;;;23.00;20.00;;;;;7.28;49.78;99879.53;5017415;28;45505;-65
2023/03/07 03:44:32;;;;;;;;;25.75;21.50;;;;;7.30;49.68;99879.50;5017188;28;45500;-65
2023/03/07 03:46:58;;;;;;;;;19.75;18.00;;;;;7.30;49.67;99874.28;5017022;28;46219;-65
2023/03/07 03:49:23;;;;;;;;;19.50;16.00;;;;;7.29;49.85;99868.19;5015920;28;45680;-65
2023/03/07 03:51:48;;;;;;;;;22.00;21.25;;;;;7.29;49.76;99864.72;5017317;28;45149;-65
2023/03/07 03:54:14;;;;;;;;;19.50;17.75;;;;;7.29;49.69;99862.09;5017177;28;45435;-65
2023/03/07 03:56:39;;;;;;;;;26.00;19.75;;;;;7.29;49.87;99865.56;5016998;28;46147;-65
2023/03/07 03:59:05;;;;;;;;;22.00;18.50;;;;;7.30;49.89;99861.22;5011438;28;45353;-65
2023/03/07 04:01:30;;;;;;;;;20.00;19.00;;;;;7.31;49.76;99855.97;5010137;28;45479;-65
2023/03/07 04:03:56;;;;;;;;;19.00;18.25;;;;;7.26;49.79;99844.72;5009491;28;45367;-65
2023/03/07 04:06:24;;;;;;;;;21.25;17.75;;;;;7.27;49.81;99861.25;5016731;28;46067;-65
2023/03/07 04:08:51;;;;;;;;;21.25;18.50;;;;;7.27;49.91;99843.84;5017041;28;45391;-65
2023/03/07 04:11:18;;;;;;;;;23.25;19.25;;;;;7.29;49.87;99839.44;5009020;28;45242;-65
2023/03/07 04:13:43;;;;;;;;;18.75;17.00;;;;;7.27;49.81;99843.84;5009852;28;45184;-65
2023/03/07 04:16:09;;;;;;;;;23.25;20.00;;;;;7.30;49.68;99849.00;5015385;28;52308;-65
2023/03/07 04:18:35;;;;;;;;;21.25;17.75;;;;;7.29;49.66;99839.44;5017044;28;45210;-65
2023/03/07 04:21:00;;;;;;;;;25.50;19.25;;;;;7.25;49.66;99835.16;5016862;28;45421;-65
2023/03/07 04:23:27;;;;;;;;;25.75;21.50;;;;;7.29;49.87;99843.81;5015517;28;45419;-65
2023/03/07 04:25:58;;;;;;;;;24.75;19.50;;;;;7.29;49.80;99835.97;5016422;28;45303;-65
2023/03/07 04:28:27;;;;;;;;;19.50;17.00;;;;;7.23;49.88;99826.47;5016566;28;45316;-65
2023/03/07 04:30:53;;;;;;;;;27.50;21.75;;;;;7.24;49.79;99838.63;5016687;28;45318;-65
2023/03/07 04:33:19;;;;;;;;;21.75;19.00;;;;;7.24;49.84;99840.41;5016681;28;45322;-65
2023/03/07 04:35:44;;;;;;;;;26.50;18.75;;;;;7.21;49.95;99843.03;5018312;28;45961;-65
2023/03/07 04:38:10;;;;;;;;;25.00;21.00;;;;;7.21;50.26;99835.19;5019562;28;45218;-65
2023/03/07 04:40:36;;;;;;;;;24.75;20.00;;;;;7.22;49.87;99837.81;5019654;28;45488;-65
2023/03/07 04:43:02;;;;;;;;;19.75;18.75;;;;;7.23;49.96;99849.13;5019485;28;45489;-65
2023/03/07 04:45:28;;;;;;;;;20.50;18.75;;;;;7.21;49.93;99845.66;5019474;28;45451;-65
2023/03/07 04:47:54;;;;;;;;;21.50;20.50;;;;;7.22;50.10;99847.38;5019468;28;45286;-65
2023/03/07 04:50:19;;;;;;;;;27.25;22.50;;;;;7.21;49.77;99849.16;5019269;28;49343;-65
2023/03/07 04:52:45;;;;;;;;;25.50;18.50;;;;;7.20;50.12;99836.97;5019508;28;45464;-65
2023/03/07 04:55:11;;;;;;;;;24.75;18.50;;;;;7.19;49.94;99837.84;5017979;28;47270;-65
2023/03/07 04:57:37;;;;;;;;;21.25;17.00;;;;;7.16;49.45;99820.47;5019392;28;45274;-65
2023/03/07 05:00:08;;;;;;;;;23.25;19.50;;;;;7.17;49.65;99826.56;5012224;28;45395;-65
2023/03/07 05:02:33;;;;;;;;;25.50;21.00;;;;;7.09;50.18;99813.59;5004925;28;45477;-65
2023/03/07 05:04:59;;;;;;;;;16.75;16.75;;;;;7.15;49.82;99820.50;5019415;28;46028;-65
2023/03/07 05:07:24;;;;;;;;;26.25;25.00;;;;;7.13;50.05;99807.47;5017815;28;45247;-65
2023/03/07 05:09:49;;;;;;;;;26.00;21.25;;;;;7.12;50.08;99810.09;5019397;28;45562;-65
2023/03/07 05:12:15;;;;;;;;;25.75;24.75;;;;;7.14;50.18;99814.41;5003530;28;45334;-65
2023/03/07 05:14:40;;;;;;;;;27.00;23.25;;;;;7.17;50.10;99818.72;5019251;28;45384;-65
2023/03/07 05:17:05;;;;;;;;;23.25;19.25;;;;;7.08;49.64;99798.81;5018634;28;45402;-65
2023/03/07 05:19:31;;;;;;;;;21.50;20.25;;;;;7.12;50.18;99805.72;5019331;28;45396;-65
2023/03/07 05:21:56;;;;;;;;;28.25;21.25;;;;;7.19;49.93;99816.09;5019036;28;45318;-65
2023/03/07 05:24:21;;;;;;;;;29.00;21.00;;;;;7.18;49.96;99819.59;5019175;28;45408;-65
2023/03/07 05:26:47;;;;;;;;;28.00;20.50;;;;;7.19;49.88;99818.69;5019029;28;45469;-65
2023/03/07 05:29:12;;;;;;;;;18.50;14.00;;;;;7.19;50.22;99816.09;5019039;28;45857;-65
2023/03/07 05:31:38;;;;;;;;;22.25;20.25;;;;;7.18;49.98;99817.81;5034309;28;45601;-65
2023/03/07 05:34:03;;;;;;;;;28.25;23.00;;;;;7.16;50.15;99809.16;5018866;28;45701;-65
2023/03/07 05:36:29;;;;;;;;;20.50;18.50;;;;;7.16;50.00;99804.78;5018857;28;45281;-65
2023/03/07 05:38:55;;;;;;;;;18.50;17.00;;;;;7.14;50.07;99809.19;5018807;28;45446;-65
2023/03/07 05:41:21;;;;;;;;;23.00;17.75;;;;;7.11;50.31;99803.16;5018998;28;45212;-65
2023/03/07 05:43:47;;;;;;;;;25.75;18.00;;;;;7.10;50.07;99797.03;5018628;28;45990;-65
2023/03/07 05:46:12;;;;;;;;;18.50;15.50;;;;;7.12;50.13;99795.28;5016764;28;45617;-65
2023/03/07 05:48:38;;;;;;;;;25.75;19.00;;;;;7.08;50.24;99792.72;5018475;28;45224;-65
2023/03/07 05:51:03;;;;;;;;;20.25;19.50;;;;;7.12;50.13;99805.72;5018955;28;45185;-66
2023/03/07 05:53:28;;;;;;;;;26.00;21.50;;;;;7.12;50.35;99797.03;5018750;28;46431;-64
2023/03/07 05:55:54;;;;;;;;;27.25;21.00;;;;;7.13;50.23;99794.41;5018734;28;45323;-64
2023/03/07 05:58:19;;;;;;;;;27.75;22.25;;;;;7.09;50.31;99790.09;5018582;28;45240;-65
2023/03/07 06:00:44;;;;;;;;;21.25;20.00;;;;;7.06;50.21;99782.31;5011884;28;45373;-65
2023/03/07 06:03:10;;;;;;;;;22.50;22.00;;;;;7.07;50.34;99783.16;5003627;28;48368;-65
2023/03/07 06:05:35;;;;;;;;;28.00;21.75;;;;;7.07;50.13;99780.53;5018717;28;45291;-64
2023/03/07 06:08:01;;;;;;;;;22.50;17.00;;;;;7.10;50.14;99793.56;5018496;28;45511;-64
2023/03/07 06:10:26;;;;;;;;;24.50;20.00;;;;;7.09;50.30;99787.47;5017372;28;45323;-65
2023/03/07 06:12:52;;;;;;;;;24.50;21.25;;;;;7.10;50.18;99789.19;5003484;28;46983;-65
2023/03/07 06:15:19;;;;;;;;;25.25;22.00;;;;;7.10;50.46;99781.34;5018691;28;45310;-65
2023/03/07 06:17:44;;;;;;;;;22.25;20.75;;;;;7.04;50.17;99781.44;5018366;28;45403;-66
2023/03/07 06:20:11;;;;;;;;;22.50;18.50;;;;;7.11;50.18;99788.31;5018199;28;45263;-64
2023/03/07 06:22:37;;;;;;;;;24.50;19.25;;;;;7.08;50.14;99783.16;5016908;28;47444;-63
2023/03/07 06:25:06;;;;;;;;;20.00;17.75;;;;;7.10;50.38;99789.19;5018387;28;45273;-64
2023/03/07 06:27:33;;;;;;;;;19.75;18.50;;;;;7.08;50.45;99783.16;5007545;28;45315;-65
2023/03/07 06:29:58;;;;;;;;;21.00;19.00;;;;;7.11;50.22;99785.72;5010803;28;45417;-65
2023/03/07 06:32:24;;;;;;;;;22.50;17.75;;;;;7.07;50.23;99781.41;5018117;28;45316;-65
2023/03/07 06:34:49;;;;;;;;;17.00;14.00;;;;;7.11;50.17;99788.31;5015957;27;45458;-64
2023/03/07 06:37:15;;;;;;;;;25.75;19.50;;;;;7.09;50.08;99784.84;4999471;27;45453;-62
2023/03/07 06:39:41;;;;;;;;;21.00;19.75;;;;;7.09;50.23;99784.00;5000867;28;45462;-63
2023/03/07 06:42:06;;;;;;;;;17.25;16.25;;;;;7.12;50.21;99787.44;5000642;28;46296;-66
2023/03/07 06:44:31;;;;;;;;;28.00;22.75;;;;;7.06;50.07;99778.84;4998130;28;45371;-65
2023/03/07 06:46:57;;;;;;;;;30.50;27.00;;;;;7.12;50.26;99781.38;4998045;28;45398;-64
2023/03/07 06:49:22;;;;;;;;;26.00;22.25;;;;;7.12;50.17;99783.97;4998026;28;45387;-67
2023/03/07 06:51:47;;;;;;;;;26.25;20.75;;;;;7.14;50.17;99780.44;4998434;28;46041;-66
2023/03/07 06:54:13;;;;;;;;;29.50;22.00;;;;;7.13;50.32;99778.72;4996971;28;45142;-68
2023/03/07 06:56:38;;;;;;;;;24.00;19.50;;;;;7.14;50.25;99790.03;4997104;28;45285;-67
2023/03/07 06:59:03;;;;;;;;;21.50;20.00;;;;;7.16;50.04;99780.41;4992918;28;45382;-65
2023/03/07 07:01:29;;;;;;;;;21.75;17.75;;;;;7.16;50.32;99783.03;5025167;27;46175;-67
2023/03/07 07:03:55;;;;;;;;;17.75;17.50;;;;;7.15;50.36;99774.31;5026860;27;45294;-62
2023/03/07 07:06:20;;;;;;;;;28.00;23.75;;;;;7.15;50.42;99773.47;4998349;28;45404;-66
2023/03/07 07:08:46;;;;;;;;;19.75;16.50;;;;;7.16;50.44;99769.97;5029754;28;45503;-66
2023/03/07 07:11:11;;;;;;;;;20.75;18.00;;;;;7.14;50.39;99767.38;4996845;28;45302;-67
2023/03/07 07:13:36;;;;;;;;;21.75;18.75;;;;;7.17;50.44;99776.94;4997682;28;45337;-67
2023/03/07 07:16:06;;;;;;;;;22.00;20.25;;;;;7.18;50.46;99773.41;4997804;28;47627;-67
2023/03/07 07:18:32;;;;;;;;;25.25;19.50;;;;;7.19;50.34;99779.50;4997996;28;45245;-67
2023/03/07 07:20:57;;;;;;;;;23.25;17.50;;;;;7.22;50.26;99777.72;4996309;28;47308;-62
2023/03/07 07:23:25;;;;;;;;;23.50;17.25;;;;;7.23;50.28;99779.44;4998477;28;45354;-62
2023/03/07 07:25:50;;;;;;;;;21.50;16.75;;;;;7.23;50.33;99786.41;4997726;28;45719;-63
2023/03/07 07:28:15;;;;;;;;;23.75;21.75;;;;;7.24;50.27;99780.28;4996787;28;45575;-62
2023/03/07 07:30:41;;;;;;;;;23.75;18.00;;;;;7.22;50.57;99782.06;4987085;28;47123;-64
2023/03/07 07:33:06;;;;;;;;;22.00;18.50;;;;;7.25;50.35;99792.47;4998276;28;45412;-64
2023/03/07 07:35:31;;;;;;;;;20.00;18.50;;;;;7.22;50.37;99779.44;4996581;27;45381;-63
2023/03/07 07:37:57;;;;;;;;;20.75;18.50;;;;;7.22;50.59;99780.31;4996310;28;45378;-64
2023/03/07 07:40:22;;;;;;;;;19.25;14.75;;;;;7.24;50.56;99778.53;5002771;28;48314;-63
2023/03/07 07:42:53;;;;;;;;;22.00;18.25;;;;;7.25;50.42;99782.03;5007936;28;45388;-64
2023/03/07 07:45:22;;;;;;;;;23.75;22.00;;;;;7.25;50.53;99782.03;5002949;28;45258;-63
2023/03/07 07:47:48;;;;;;;;;24.00;19.25;;;;;7.23;50.37;99776.84;5006551;28;45261;-62
2023/03/07 07:50:16;;;;;;;;;17.75;14.25;;;;;7.23;50.67;99774.22;5011721;28;47159;-62
2023/03/07 07:52:41;;;;;;;;;20.50;19.25;;;;;7.20;50.45;99776.84;5006728;28;45242;-62
2023/03/07 07:55:07;;;;;;;;;21.25;20.00;;;;;7.23;50.65;99782.06;5006964;28;45364;-61
2023/03/07 07:57:32;;;;;;;;;26.25;19.50;;;;;7.19;50.42;99776.91;5005628;28;45412;-62
2023/03/07 07:59:58;;;;;;;;;18.00;18.00;;;;;7.22;50.60;99785.56;5011037;28;51597;-62
2023/03/07 08:02:24;;;;;;;;;18.75;18.00;;;;;7.21;50.60;99772.50;5034685;27;45424;-63
2023/03/07 08:04:49;;;;;;;;;21.50;17.75;;;;;7.19;50.46;99787.34;5004029;28;45356;-62
2023/03/07 08:07:15;;;;;;;;;27.75;23.25;;;;;7.23;50.57;99789.00;5006247;28;45439;-62
2023/03/07 08:09:40;;;;;;;;;20.50;19.50;;;;;7.24;50.63;99794.22;5001848;28;45985;-62
2023/03/07 08:12:06;;;;;;;;;17.00;16.00;;;;;7.22;50.62;99792.50;5003815;28;45260;-63
2023/03/07 08:14:33;;;;;;;;;26.00;18.00;;;;;7.23;50.63;99783.78;5003523;28;45476;-63
2023/03/07 08:16:58;;;;;;;;;22.25;20.75;;;;;7.23;50.69;99791.63;5003538;28;45588;-63
2023/03/07 08:19:23;;;;;;;;;24.50;19.50;;;;;7.25;50.43;99800.31;5003975;28;49798;-63
2023/03/07 08:21:48;;;;;;;;;18.00;16.00;;;;;7.25;50.67;99797.72;5059403;27;45438;-64
2023/03/07 08:24:14;;;;;;;;;21.75;17.25;;;;;7.23;50.50;99794.25;5008960;28;45536;-64
2023/03/07 08:26:39;;;;;;;;;23.75;21.00;;;;;7.24;50.54;99788.13;5004349;28;45564;-63
2023/03/07 08:29:04;;;;;;;;;22.50;20.25;;;;;7.20;50.77;99796.91;5003132;28;52558;-63
2023/03/07 08:31:30;;;;;;;;;24.25;20.25;;;;;7.24;50.75;99788.13;5004437;28;45279;-63
2023/03/07 08:33:55;;;;;;;;;23.25;20.50;;;;;7.23;50.63;99795.13;5003608;28;45716;-64
2023/03/07 08:36:21;;;;;;;;;16.50;15.25;;;;;7.24;50.82;99804.66;5000322;27;45407;-63
2023/03/07 08:38:53;;;;;;;;;25.25;17.75;;;;;7.24;50.78;99803.81;4996391;27;46629;-62
2023/03/07 08:41:20;;;;;;;;;24.25;19.75;;;;;7.27;50.64;99806.38;4995455;28;45588;-62
2023/03/07 08:43:45;;;;;;;;;28.25;21.75;;;;;7.27;50.67;99815.09;4995597;27;45193;-62
2023/03/07 08:46:10;;;;;;;;;25.75;23.50;;;;;7.28;50.85;99810.72;4998115;28;45168;-61
2023/03/07 08:48:36;;;;;;;;;24.50;23.25;;;;;7.31;50.67;99803.69;4995969;27;46299;-61
2023/03/07 08:51:07;;;;;;;;;20.75;20.75;;;;;7.25;50.73;99801.16;4996197;28;45437;-61
2023/03/07 08:53:32;;;;;;;;;18.00;17.00;;;;;7.35;50.57;99798.44;4999274;28;45401;-61
2023/03/07 08:55:58;;;;;;;;;25.25;20.25;;;;;7.38;50.86;99807.06;4991479;28;45422;-62
2023/03/07 08:58:23;;;;;;;;;16.50;10.75;;;;;7.40;50.80;99799.22;4991451;28;45889;-62
2023/03/07 09:00:49;;;;;;;;;21.00;18.00;;;;;7.38;50.82;99798.38;4995754;28;45402;-63
2023/03/07 09:03:14;;;;;;;;;25.50;23.25;;;;;7.40;50.85;99786.16;5010549;28;45513;-61
2023/03/07 09:05:39;;;;;;;;;24.75;21.25;;;;;7.39;50.77;99793.09;4997030;27;46774;-62
2023/03/07 09:08:06;;;;;;;;;20.50;18.00;;;;;7.42;50.68;99784.34;5006209;28;46000;-62
2023/03/07 09:10:33;;;;;;;;;20.50;17.75;;;;;7.45;50.50;99792.16;5004403;28;45247;-62
2023/03/07 09:12:58;;;;;;;;;18.50;15.75;;;;;7.44;50.91;99793.88;4995869;27;45433;-62
2023/03/07 09:15:24;;;;;;;;;18.75;16.25;;;;;7.43;50.69;99788.69;4994507;28;45578;-62
2023/03/07 09:17:50;;;;;;;;;30.50;23.50;;;;;7.49;50.88;99791.22;4993539;28;47067;-61
2023/03/07 09:20:16;;;;;;;;;21.00;17.50;;;;;7.49;50.70;99785.97;4994410;28;45497;-61
2023/03/07 09:22:41;;;;;;;;;22.25;20.00;;;;;7.50;50.61;99779.88;4974992;28;45547;-62
2023/03/07 09:25:07;;;;;;;;;19.25;14.75;;;;;7.52;50.91;99788.56;4995798;28;45389;-62
2023/03/07 09:27:33;;;;;;;;;21.75;20.25;;;;;7.54;50.90;99786.75;4979995;28;46966;-62
2023/03/07 09:29:58;;;;;;;;;26.75;24.50;;;;;7.52;51.15;99779.84;4997584;28;45424;-65
2023/03/07 09:32:24;;;;;;;;;17.75;17.25;;;;;7.58;50.76;99790.19;4997375;27;45315;-62
2023/03/07 09:34:51;;;;;;;;;20.50;18.25;;;;;7.59;50.80;99786.69;5012760;27;45516;-62
2023/03/07 09:37:17;;;;;;;;;18.00;15.50;;;;;7.61;50.88;99790.13;4996658;28;45406;-62
2023/03/07 09:39:43;;;;;;;;;25.00;20.50;;;;;7.61;50.98;99788.41;4998955;28;45294;-63
2023/03/07 09:42:35;;;;;;;;;20.00;18.25;;;;;7.63;50.76;99786.63;4998900;28;45637;-63
2023/03/07 09:45:26;;;;;;;;;18.75;18.50;;;;;7.65;50.82;99773.53;4996102;28;45213;-63
2023/03/07 09:48:17;;;;;;;;;20.75;18.75;;;;;7.69;50.97;99779.56;4997139;28;46507;-62
2023/03/07 09:50:53;;;;;;;;;27.25;21.50;;;;;7.68;50.89;99767.38;4998906;28;45460;-63
2023/03/07 09:53:40;;;;;;;;;21.50;20.25;;;;;7.70;50.98;99770.81;4998867;28;45189;-62
2023/03/07 09:56:42;;;;;;;;;23.00;21.75;;;;;7.73;50.95;99784.69;4998661;28;45385;-63
2023/03/07 09:59:26;;;;;;;;;18.25;16.25;;;;;7.76;50.80;99760.22;4987651;28;46074;-63
2023/03/07 10:02:04;;;;;;;;;25.25;21.75;;;;;7.77;50.88;99757.63;4998473;28;45255;-63
2023/03/07 10:04:45;;;;;;;;;22.50;19.00;;;;;7.80;50.87;99761.94;4998913;27;45313;-62
2023/03/07 10:07:14;;;;;;;;;26.75;21.25;;;;;7.83;50.99;99751.38;5000083;28;45251;-62
2023/03/07 10:09:40;;;;;;;;;26.00;22.50;;;;;7.87;51.02;99754.81;4998004;27;45330;-62
2023/03/07 10:12:45;;;;;;;;;24.50;22.75;;;;;7.91;50.98;99756.47;4998556;28;45801;-63
2023/03/07 10:15:16;;;;;;;;;26.75;23.00;;;;;7.95;50.96;99742.47;4989350;28;45347;-63
2023/03/07 10:18:04;;;;;;;;;24.00;19.25;;;;;8.01;50.87;99758.00;4996721;27;45462;-64
2023/03/07 10:20:35;;;;;;;;;25.25;20.25;;;;;8.03;51.02;99745.78;4998329;27;46065;-63
2023/03/07 10:23:31;;;;;;;;;16.75;15.25;;;;;8.09;50.88;99750.03;4997181;28;45256;-63
2023/03/07 10:26:18;;;;;;;;;20.25;17.75;;;;;8.13;50.87;99731.59;4996814;28;45339;-63
2023/03/07 10:28:46;;;;;;;;;22.75;19.50;;;;;8.18;50.94;99735.91;4997632;28;45265;-63
2023/03/07 10:31:16;;;;;;;;;22.75;18.25;;;;;8.22;50.90;99735.78;5009299;28;46268;-63
2023/03/07 10:33:46;;;;;;;;;25.75;21.50;;;;;8.26;50.68;99720.91;4998849;28;45232;-64
2023/03/07 10:36:19;;;;;;;;;23.75;20.25;;;;;8.34;50.87;99728.56;5017498;27;45468;-64
2023/03/07 10:39:03;;;;;;;;;20.50;17.75;;;;;8.41;50.91;99725.78;4995940;27;45577;-63
2023/03/07 10:41:29;;;;;;;;;22.25;20.25;;;;;8.41;50.85;99717.94;4998139;28;45289;-63
2023/03/07 10:43:55;;;;;;;;;27.25;19.75;;;;;8.45;50.81;99724.84;4995016;28;45634;-63
2023/03/07 10:46:29;;;;;;;;;21.00;15.50;;;;;8.51;50.89;99729.13;4997803;27;45468;-64
2023/03/07 10:49:31;;;;;;;;;20.50;19.00;;;;;8.57;50.45;99723.75;4997744;28;45322;-63
2023/03/07 10:52:26;;;;;;;;;21.25;17.75;;;;;8.62;50.46;99719.25;4997943;27;45229;-63
2023/03/07 10:54:53;;;;;;;;;19.75;16.00;;;;;8.62;50.64;99711.41;4997847;28;45282;-63
2023/03/07 10:57:26;;;;;;;;;17.50;13.25;;;;;8.69;50.67;99719.13;4998093;28;45327;-64
2023/03/07 10:59:53;;;;;;;;;20.75;17.75;;;;;8.81;50.22;99716.22;5012917;27;45247;-64
2023/03/07 11:02:30;;;;;;;;;19.25;17.25;;;;;8.87;50.22;99710.84;4996520;28;47100;-63
2023/03/07 11:04:56;;;;;;;;;14.75;12.50;;;;;8.91;50.33;99707.25;5007909;27;45443;-63
2023/03/07 11:07:32;;;;;;;;;25.00;21.75;;;;;9.01;50.36;99707.91;4998012;28;45421;-63
2023/03/07 11:09:59;;;;;;;;;20.50;16.75;;;;;9.07;50.22;99707.75;4997489;27;45401;-63
2023/03/07 11:12:28;;;;;;;;;16.50;16.50;;;;;9.15;50.13;99704.09;4997578;28;45383;-63
2023/03/07 11:14:58;;;;;;;;;17.25;15.75;;;;;9.21;50.20;99694.28;4997692;28;45246;-64
2023/03/07 11:17:40;;;;;;;;;16.75;14.00;;;;;9.31;49.97;99700.19;4997437;27;45495;-64
2023/03/07 11:20:28;;;;;;;;;16.50;16.25;;;;;9.37;50.05;99707.88;5006886;28;45382;-64
2023/03/07 11:23:18;;;;;;;;;12.25;12.00;;;;;9.44;49.92;99708.59;4995650;28;45387;-63
2023/03/07 11:25:44;;;;;;;;;16.75;13.00;;;;;9.48;49.58;99719.84;5027555;28;45369;-63
2023/03/07 11:28:29;;;;;;;;;15.25;13.75;;;;;9.51;49.70;99712.78;4995198;28;45299;-63